Time;durP1;ratioP1;P1;durP2;ratioP2;P2;SDS_P1;SDS_P2;PMS_P1;PMS_P2;Temp;Humidity;BMP_temperature;BMP_pressure;BME280_temperature;BME280_humidity;BME280_pressure;Samples;Min_cycle;Max_cycle;Signal;HPM_P1;HPM_P2
2023/12/01 00:03:26;;;;;;;;;81.67;63.67;;;;;;;;6488679;46;8898;-57
2023/12/01 00:09:29;;;;;;;;;86.67;68.00;;;;;;;;6488887;46;8978;-56
2023/12/01 00:15:32;;;;;;;;;91.00;70.67;;;;;;;;6490709;31;8830;-55
2023/12/01 00:21:34;;;;;;;;;91.67;71.00;;;;;;;;6489391;46;8903;-56
2023/12/01 00:27:36;;;;;;;;;96.67;72.33;;;;;;;;6488879;46;8910;-58
2023/12/01 00:33:39;;;;;;;;;93.00;71.33;;;;;;;;6488427;46;8935;-57
2023/12/01 00:39:41;;;;;;;;;89.67;71.67;;;;;;;;6487735;46;8948;-58
2023/12/01 00:45:45;;;;;;;;;85.67;67.00;;;;;;;;6488506;31;8958;-55
2023/12/01 00:51:47;;;;;;;;;92.67;73.00;;;;;;;;6488054;39;9495;-54
2023/12/01 00:57:53;;;;;;;;;88.00;68.67;;;;;;;;6489144;39;9018;-58
2023/12/01 01:03:57;;;;;;;;;86.67;66.67;;;;;;;;6487772;46;9083;-56
2023/12/01 01:10:01;;;;;;;;;85.33;66.67;;;;;;;;6488733;39;9520;-55
2023/12/01 01:16:04;;;;;;;;;88.67;66.33;;;;;;;;6488790;46;9101;-58
2023/12/01 01:22:07;;;;;;;;;84.67;64.00;;;;;;;;6488729;39;8918;-58
2023/12/01 01:28:09;;;;;;;;;80.00;64.00;;;;;;;;6488724;46;8878;-57
2023/12/01 01:34:14;;;;;;;;;81.33;63.67;;;;;;;;6488447;31;8965;-57
2023/12/01 01:40:20;;;;;;;;;81.33;62.33;;;;;;;;6488558;39;8914;-55
2023/12/01 01:46:22;;;;;;;;;73.50;59.25;;;;;;;;6487829;46;8891;-60
2023/12/01 01:52:26;;;;;;;;;71.00;56.00;;;;;;;;6487706;39;8869;-57
2023/12/01 01:58:29;;;;;;;;;80.33;62.00;;;;;;;;6487582;46;8907;-56
2023/12/01 02:04:34;;;;;;;;;73.75;56.25;;;;;;;;6488110;39;8960;-57
2023/12/01 02:10:36;;;;;;;;;75.00;60.25;;;;;;;;6488681;39;8879;-56
2023/12/01 02:16:45;;;;;;;;;65.75;55.25;;;;;;;;6489233;31;9539;-55
2023/12/01 02:22:48;;;;;;;;;73.50;56.75;;;;;;;;6487389;39;8899;-54
2023/12/01 02:28:51;;;;;;;;;71.50;57.00;;;;;;;;6487754;39;9051;-55
2023/12/01 02:34:54;;;;;;;;;56.75;49.25;;;;;;;;6487589;46;8907;-55
2023/12/01 02:40:56;;;;;;;;;64.25;53.50;;;;;;;;6487959;47;8905;-56
2023/12/01 02:46:59;;;;;;;;;67.25;52.00;;;;;;;;6486976;39;8875;-59
2023/12/01 02:53:03;;;;;;;;;62.75;50.75;;;;;;;;6488822;39;9577;-56
2023/12/01 02:59:06;;;;;;;;;66.00;55.25;;;;;;;;6489768;46;8902;-57
2023/12/01 03:05:09;;;;;;;;;62.00;50.75;;;;;;;;6488911;31;9709;-57
2023/12/01 03:11:11;;;;;;;;;68.00;51.75;;;;;;;;6507156;36;8928;-58
2023/12/01 03:17:14;;;;;;;;;68.50;53.75;;;;;;;;6489730;39;8853;-55
2023/12/01 03:23:16;;;;;;;;;72.00;57.50;;;;;;;;6488821;31;8886;-56
2023/12/01 03:29:19;;;;;;;;;66.25;50.00;;;;;;;;6488843;39;9587;-57
2023/12/01 03:35:24;;;;;;;;;76.67;55.67;;;;;;;;6489193;46;9128;-55
2023/12/01 03:41:27;;;;;;;;;69.33;56.67;;;;;;;;6489563;31;8955;-55
2023/12/01 03:47:29;;;;;;;;;65.67;55.67;;;;;;;;6456425;36;5001680;-55
2023/12/01 03:53:32;;;;;;;;;69.67;56.33;;;;;;;;6489137;39;9002;-55
2023/12/01 03:59:34;;;;;;;;;64.33;52.67;;;;;;;;6489926;39;8892;-56
2023/12/01 04:05:37;;;;;;;;;67.25;57.00;;;;;;;;6489080;46;8863;-61
2023/12/01 04:11:47;;;;;;;;;70.25;55.50;;;;;;;;6489717;39;8835;-57
2023/12/01 04:17:50;;;;;;;;;75.00;59.67;;;;;;;;6488838;46;9023;-54
2023/12/01 04:23:52;;;;;;;;;70.67;58.33;;;;;;;;6488807;31;9528;-57
2023/12/01 04:29:54;;;;;;;;;72.00;57.50;;;;;;;;6490921;31;8927;-57
2023/12/01 04:35:58;;;;;;;;;67.50;54.75;;;;;;;;6489863;31;8904;-56
2023/12/01 04:42:00;;;;;;;;;67.50;55.25;;;;;;;;6488949;39;9617;-56
2023/12/01 04:48:07;;;;;;;;;62.75;52.75;;;;;;;;6489944;39;9507;-56
2023/12/01 04:54:11;;;;;;;;;70.75;53.25;;;;;;;;6488874;31;9600;-55
2023/12/01 05:00:19;;;;;;;;;51.75;45.00;;;;;;;;6488990;31;8962;-54
2023/12/01 05:06:22;;;;;;;;;65.75;52.25;;;;;;;;6461848;39;9006;-57
2023/12/01 05:12:25;;;;;;;;;62.25;52.50;;;;;;;;6491467;39;8879;-59
2023/12/01 05:18:28;;;;;;;;;58.50;46.25;;;;;;;;6491258;31;8871;-58
